Los Cabos International Airport
MMSD : now visible

Airfield :











YOU CAN JOIN US ON...

 
LOGIN :

Register | Disclaimer

   EN    FR    IT 

 









Legend :    VFR   Marginal VFR   IFR   Intensive IFR   Very Intensive IFR
Visi :
Ceiling :
>= 8 km
>= 3000ft
5 to 8 km
1000 to 3000 ft
1500m to 5 km
500 to 1000 ft
800 to 1500m
200 to 500 ft
< 800m
< 200 ft
Symbols :   Thunderstorms  Fog  Heavy snow  Heavy precipitations  Wind > 20 kt







- Airport Elevation : 374 ft
- IATA code : SJD


MMSD - Los Cabos International

CURRENT METAR :
  • 201655Z 30016KT 4SM -RA BKN020 OVC060 25/23 A2976 RMK 6//// 8/57/ CONDS VRBS

EXPIRED METARs :
  • 201543Z 30012KT 2SM -RA VV020 25/23 A2978 RMK 6//// 8//// CONDS VRBLS
  • 201526Z 30010KT 1 1/2SM RA VV020 25/23 A2978 RMK 8//// CONDS VRBLS
  • 201454Z 29013KT 3SM -RA BKN020CB OVC070 25/23 A2977 RMK SLP064 5//// 966 6//// 8/32/ CONDS VRBLS
  • 201348Z 01006KT 1 1/2SM -RA VV008 25/23 A2976 RMK 6//// 8//// CONDS VRBLS

TAF AMD TAF MMSD
Valid from the 20 at 13:00 until the 21 at 06:00 UTC


201329Z 2013/2106 10020KT 2SM -RA VV002 OVC015CB OVC080
FM201500 16020G30KT 3SM RA BKN004 BKN015CB OVC080
TEMPO 2015/2019 1/2SM TSRA
FM202000 16020G30KT 3SM RA BKN015CB OVC080
TEMPO 2020/2024 1SM TSRA
FM210000 16030G40KT 2SM TSRA OVC015CB
No reported NOTAMs for that airfield.



MET'MAP, your aeronautical weather chart ! - Copyright ORBIFLY December 2007 - Disclaimer

ORBIFLY MET'MAP TEAM :

Programming & Development : Alexandra Zaïnal
Concept & Development : Baudouin d'Aumeries
Co-Development & Prog : Marc-Olivier Méhu
Technical & hardware support : Manuel Goepfert

Contact : metmap@orbifly.com




SOURCES & CREDITS :

   NOAA       Earth
Advisory